Terminal Aerodrome Forecast
Issued by NWS Cleveland, OH

Home | Current Version | Previous Version | Graphics & Text | Print | Product List | Glossary On
Versions: 1 2 3 4 5 6 7 8 9 10 11 12 13 14 15 16 17
718
FTUS41 KCLE 290541
TAFYNG
TAF
KYNG 290541Z 2906/3006 07004KT P6SM VCSH OVC060
      TEMPO 2906/2908 4SM -SHRA BR OVC050
     FM291000 06004KT P6SM VCSH OVC025
     FM291200 04004KT P6SM OVC015
     FM291600 01005KT 4SM -SHRA OVC010
     FM292200 03005KT P6SM OVC008=

USA.gov is the U.S. government's official web portal to all federal, state and local government web resources and services.